Time;durP1;ratioP1;P1;durP2;ratioP2;P2;SDS_P1;SDS_P2;PMS_P1;PMS_P2;Temp;Humidity;BMP_temperature;BMP_pressure;BME280_temperature;BME280_humidity;BME280_pressure;Samples;Min_cycle;Max_cycle;Signal;HPM_P1;HPM_P2
2023/09/20 00:00:53;;;;;;;7.47;2.47;;;;;;;16.21;100.00;100912.16;4943815;29;20190;-70
2023/09/20 00:03:19;;;;;;;10.67;2.53;;;;;;;16.76;100.00;101007.66;4943965;28;20461;-70
2023/09/20 00:05:47;;;;;;;6.07;2.13;;;;;;;16.65;100.00;100996.56;4944210;28;20803;-70
2023/09/20 00:08:14;;;;;;;7.07;2.67;;;;;;;16.74;100.00;101016.00;4944547;29;20444;-70
2023/09/20 00:10:40;;;;;;;10.20;2.87;;;;;;;16.70;100.00;101012.94;4945069;29;20470;-70
2023/09/20 00:13:06;;;;;;;6.17;2.30;;;;;;;16.72;100.00;101021.69;4938000;28;20470;-70
2023/09/20 00:15:32;;;;;;;6.50;2.50;;;;;;;16.17;100.00;100931.78;4961295;28;20183;-70
2023/09/20 00:17:58;;;;;;;13.07;2.77;;;;;;;16.12;100.00;100937.94;4941962;28;20454;-70
2023/09/20 00:20:24;;;;;;;7.70;2.70;;;;;;;16.61;100.00;100997.28;4943716;28;20450;-70
2023/09/20 00:22:51;;;;;;;6.60;2.60;;;;;;;16.56;100.00;100991.75;4934312;29;20978;-70
2023/09/20 00:25:16;;;;;;;5.33;2.57;;;;;;;16.54;100.00;100997.38;4942635;28;20986;-69
2023/09/20 00:27:45;;;;;;;7.60;2.50;;;;;;;16.61;100.00;101027.09;4946213;28;20447;-70
2023/09/20 00:30:15;;;;;;;8.10;2.93;;;;;;;16.61;100.00;100997.28;4947475;28;20194;-69
2023/09/20 00:32:42;;;;;;;11.00;2.60;;;;;;;16.66;100.00;101010.94;4939472;28;20471;-70
2023/09/20 00:35:10;;;;;;;6.17;2.43;;;;;;;16.67;100.00;101013.41;4941821;28;20445;-69
2023/09/20 00:37:40;;;;;;;8.03;2.87;;;;;;;16.62;100.00;101012.47;4937307;29;21029;-70
2023/09/20 00:40:18;;;;;;;4.90;2.10;;;;;;;16.73;100.00;101033.31;4951654;28;20877;-70
2023/09/20 00:42:45;;;;;;;6.97;2.23;;;;;;;16.69;100.00;101016.72;4935999;28;20486;-70
2023/09/20 00:45:15;;;;;;;5.67;2.03;;;;;;;16.47;100.00;100967.72;4928257;28;20462;-70
2023/09/20 00:47:47;;;;;;;8.67;2.87;;;;;;;16.55;100.00;101003.63;4941642;28;20534;-69
2023/09/20 00:50:14;;;;;;;7.20;2.43;;;;;;;16.66;100.00;101019.06;4957633;28;20944;-70
2023/09/20 00:52:46;;;;;;;6.90;2.50;;;;;;;16.42;100.00;100993.84;4936282;28;20498;-70
2023/09/20 00:55:20;;;;;;;8.00;2.53;;;;;;;16.58;100.00;101030.25;4933369;28;20830;-70
2023/09/20 00:57:47;;;;;;;9.17;2.90;;;;;;;16.46;100.00;101006.69;4943732;28;20445;-70
2023/09/20 01:00:21;;;;;;;8.37;3.03;;;;;;;15.82;100.00;100919.03;4934210;29;20494;-70
2023/09/20 01:02:52;;;;;;;11.10;3.00;;;;;;;16.40;100.00;101006.78;4946525;28;20550;-70
2023/09/20 01:05:21;;;;;;;8.10;2.60;;;;;;;16.33;100.00;101000.69;4937816;28;20473;-70
2023/09/20 01:07:49;;;;;;;7.10;3.00;;;;;;;15.92;100.00;100954.47;4939805;28;20445;-70
2023/09/20 01:10:15;;;;;;;12.10;3.37;;;;;;;16.42;100.00;101019.03;4937788;28;20453;-70
2023/09/20 01:12:43;;;;;;;6.50;2.23;;;;;;;16.61;100.00;101067.72;4933071;28;20467;-70
2023/09/20 01:15:10;;;;;;;7.80;2.97;;;;;;;16.09;100.00;100973.56;4940017;28;20453;-70
2023/09/20 01:17:45;;;;;;;10.13;3.37;;;;;;;16.59;100.00;101048.97;4941382;29;20534;-69
2023/09/20 01:20:19;;;;;;;8.10;3.10;;;;;;;16.69;100.00;101064.63;4935541;28;20448;-70
2023/09/20 01:22:48;;;;;;;11.20;2.87;;;;;;;15.95;100.00;100943.19;4938131;28;20975;-70
2023/09/20 01:25:25;;;;;;;7.90;2.50;;;;;;;16.70;100.00;101063.59;4936895;28;20446;-70
2023/09/20 01:27:59;;;;;;;8.93;3.67;;;;;;;16.72;100.00;101058.75;4956979;28;20439;-70
2023/09/20 01:30:27;;;;;;;10.80;3.13;;;;;;;16.77;100.00;101067.03;4934781;28;20446;-70
2023/09/20 01:32:53;;;;;;;7.10;2.87;;;;;;;16.70;100.00;101041.94;4932666;28;20559;-70
2023/09/20 01:35:20;;;;;;;7.90;2.80;;;;;;;16.72;100.00;101037.94;4947265;28;20454;-70
2023/09/20 01:37:46;;;;;;;10.63;3.23;;;;;;;16.78;100.00;101041.63;4934021;28;20454;-70
2023/09/20 01:40:15;;;;;;;5.93;2.73;;;;;;;16.61;100.00;101000.81;4949751;28;20455;-70
2023/09/20 01:42:42;;;;;;;12.40;4.00;;;;;;;16.81;100.00;101060.09;4939867;28;20258;-69
2023/09/20 01:45:14;;;;;;;10.03;3.30;;;;;;;16.75;100.00;101031.22;4949138;28;20849;-70
2023/09/20 01:47:41;;;;;;;7.20;2.67;;;;;;;16.87;100.00;101033.97;4939338;28;20450;-70
2023/09/20 01:50:07;;;;;;;11.17;3.07;;;;;;;16.09;100.00;100902.41;4943169;28;20449;-70
2023/09/20 01:52:32;;;;;;;10.67;3.40;;;;;;;16.83;100.00;101014.63;4942506;28;20477;-70
2023/09/20 01:55:00;;;;;;;7.80;3.20;;;;;;;16.69;100.00;100986.09;4937911;28;20831;-70
2023/09/20 01:57:26;;;;;;;6.93;3.20;;;;;;;16.61;100.00;100962.09;4955957;28;20286;-70
2023/09/20 01:59:51;;;;;;;8.43;3.10;;;;;;;16.55;100.00;100968.41;4941507;28;21063;-70
2023/09/20 02:02:17;;;;;;;11.53;3.60;;;;;;;16.88;100.00;101017.44;4936543;28;20250;-70
2023/09/20 02:04:42;;;;;;;10.03;2.80;;;;;;;16.88;100.00;101014.75;4937384;28;20195;-70
2023/09/20 02:07:09;;;;;;;9.83;3.00;;;;;;;16.21;100.00;100912.16;4945589;28;20199;-70
2023/09/20 02:09:35;;;;;;;8.17;2.90;;;;;;;16.67;100.00;100969.28;4947358;28;20614;-70
2023/09/20 02:12:00;;;;;;;9.67;3.00;;;;;;;16.73;100.00;100981.88;4936926;28;20486;-70
2023/09/20 02:14:27;;;;;;;11.40;3.40;;;;;;;16.27;100.00;100894.16;4938188;28;20726;-70
2023/09/20 02:16:52;;;;;;;13.10;3.70;;;;;;;16.87;100.00;100982.47;4945981;28;20548;-70
2023/09/20 02:19:19;;;;;;;12.43;3.07;;;;;;;16.27;100.00;100886.03;4938186;28;20458;-70
2023/09/20 02:21:46;;;;;;;10.83;3.10;;;;;;;16.93;100.00;100981.53;4951367;28;20295;-70
2023/09/20 02:24:11;;;;;;;8.60;3.00;;;;;;;16.33;100.00;100873.47;4944406;28;20471;-70
2023/09/20 02:26:37;;;;;;;6.60;2.60;;;;;;;16.87;100.00;100956.22;4940967;28;20439;-70
2023/09/20 02:29:03;;;;;;;7.57;2.63;;;;;;;16.25;100.00;100863.78;4945203;28;20198;-70
2023/09/20 02:31:28;;;;;;;8.00;2.20;;;;;;;16.96;100.00;100964.81;4945939;28;20219;-70
2023/09/20 02:33:55;;;;;;;11.23;2.60;;;;;;;16.89;100.00;100953.25;4946109;28;21123;-70
2023/09/20 02:36:20;;;;;;;7.40;2.70;;;;;;;16.89;100.00;100961.38;4956588;28;20195;-70
2023/09/20 02:38:46;;;;;;;7.90;3.10;;;;;;;16.78;100.00;100937.84;4947676;28;20447;-70
2023/09/20 02:41:11;;;;;;;7.30;2.20;;;;;;;16.56;100.00;100892.38;4941519;28;20198;-70
2023/09/20 02:43:38;;;;;;;9.43;2.77;;;;;;;16.94;100.00;100956.91;4945389;28;20215;-70
2023/09/20 02:46:05;;;;;;;7.03;2.70;;;;;;;16.41;100.00;100860.38;4951482;28;20286;-70
2023/09/20 02:48:31;;;;;;;8.73;2.90;;;;;;;16.39;100.00;100859.78;4950008;28;20497;-70
2023/09/20 02:51:00;;;;;;;7.47;2.70;;;;;;;16.90;100.00;100922.41;4953884;28;20455;-70
2023/09/20 02:53:26;;;;;;;6.93;2.60;;;;;;;16.35;100.00;100846.97;4952279;28;20533;-71
2023/09/20 02:55:54;;;;;;;7.30;3.03;;;;;;;17.02;100.00;100934.03;4955183;28;20451;-71
2023/09/20 02:58:19;;;;;;;9.00;3.00;;;;;;;16.68;100.00;100885.06;4966359;28;20242;-70
2023/09/20 03:00:50;;;;;;;9.83;2.57;;;;;;;16.75;100.00;100878.69;4943735;28;20554;-70
2023/09/20 03:03:17;;;;;;;8.13;3.03;;;;;;;17.00;100.00;100927.19;4948793;28;20208;-70
2023/09/20 03:05:43;;;;;;;6.23;2.37;;;;;;;16.40;100.00;100818.16;4949001;28;20453;-71
2023/09/20 03:08:12;;;;;;;6.80;2.53;;;;;;;16.25;100.00;100806.97;4940328;28;20445;-70
2023/09/20 03:10:43;;;;;;;7.40;2.37;;;;;;;17.03;100.00;100927.53;4947798;28;20791;-70
2023/09/20 03:13:16;;;;;;;7.43;2.10;;;;;;;16.31;100.00;100797.88;4941038;28;21051;-70
2023/09/20 03:15:45;;;;;;;6.20;2.30;;;;;;;17.04;100.00;100920.22;4952024;28;20430;-71
2023/09/20 03:18:13;;;;;;;4.80;2.17;;;;;;;16.98;100.00;100907.66;4946091;28;20428;-70
2023/09/20 03:20:43;;;;;;;6.50;2.40;;;;;;;17.07;100.00;100917.06;4944602;29;20454;-71
2023/09/20 03:23:09;;;;;;;8.90;3.03;;;;;;;17.05;100.00;100925.44;4944875;28;20465;-70
2023/09/20 03:25:37;;;;;;;6.77;3.07;;;;;;;16.34;100.00;100808.25;4943879;28;20452;-70
2023/09/20 03:28:04;;;;;;;8.67;2.47;;;;;;;17.02;100.00;100914.25;4947571;28;20431;-70
2023/09/20 03:30:33;;;;;;;9.17;3.13;;;;;;;17.02;100.00;100908.81;4945862;29;20467;-70
2023/09/20 03:32:59;;;;;;;5.60;2.43;;;;;;;16.84;100.00;100869.19;4944904;28;20532;-70
2023/09/20 03:35:24;;;;;;;7.80;2.50;;;;;;;17.02;100.00;100898.81;4944478;28;20834;-70
2023/09/20 03:37:51;;;;;;;7.30;2.20;;;;;;;17.02;100.00;100892.56;4946947;29;20446;-70
2023/09/20 03:40:17;;;;;;;6.07;2.37;;;;;;;17.04;100.00;100885.00;4945334;28;20184;-70
2023/09/20 03:42:54;;;;;;;5.60;2.03;;;;;;;16.99;100.00;100887.63;4943167;28;20470;-70
2023/09/20 03:45:20;;;;;;;7.50;2.30;;;;;;;16.35;100.00;100799.06;4937461;29;20541;-70
2023/09/20 03:47:53;;;;;;;6.80;2.47;;;;;;;16.93;100.00;100871.25;4938434;28;21131;-70
2023/09/20 03:50:19;;;;;;;8.10;2.77;;;;;;;16.99;100.00;100876.78;4953340;28;20441;-70
2023/09/20 03:52:46;;;;;;;7.50;2.43;;;;;;;17.01;100.00;100886.34;4937303;28;20482;-70
2023/09/20 03:55:12;;;;;;;9.37;2.50;;;;;;;16.95;100.00;100862.88;4961072;28;20455;-70
2023/09/20 03:57:38;;;;;;;7.67;1.93;;;;;;;16.74;100.00;100826.41;4946975;28;20435;-70
2023/09/20 04:00:11;;;;;;;8.93;2.33;;;;;;;17.05;100.00;100890.19;4943866;28;20830;-70
2023/09/20 04:02:38;;;;;;;6.30;2.50;;;;;;;16.96;100.00;100864.56;4940573;28;20534;-70
2023/09/20 04:05:13;;;;;;;12.83;2.97;;;;;;;17.11;100.00;100869.44;4941890;28;20621;-70
2023/09/20 04:07:39;;;;;;;8.57;2.23;;;;;;;16.93;100.00;100854.19;4943497;28;20501;-70
2023/09/20 04:10:07;;;;;;;12.17;2.57;;;;;;;17.10;100.00;100881.34;4950966;28;20439;-70
2023/09/20 04:12:32;;;;;;;6.60;2.47;;;;;;;17.08;100.00;100888.91;4960592;28;20471;-70
2023/09/20 04:14:58;;;;;;;10.13;2.97;;;;;;;17.08;100.00;100880.78;4934243;28;20460;-70
2023/09/20 04:17:26;;;;;;;6.90;2.17;;;;;;;16.93;100.00;100862.31;4934220;28;20183;-70
2023/09/20 04:19:53;;;;;;;6.73;2.57;;;;;;;17.04;100.00;100856.03;4945153;29;20205;-70
2023/09/20 04:22:18;;;;;;;7.27;2.40;;;;;;;16.87;100.00;100826.19;4962837;23;20492;-70
2023/09/20 04:24:44;;;;;;;8.10;2.87;;;;;;;16.72;100.00;100802.28;4926840;28;20457;-70
2023/09/20 04:27:09;;;;;;;8.80;2.77;;;;;;;16.82;100.00;100812.53;4926236;29;20192;-70
2023/09/20 04:29:37;;;;;;;11.13;2.70;;;;;;;17.05;100.00;100851.44;4943272;28;20194;-71
2023/09/20 04:32:04;;;;;;;13.60;3.10;;;;;;;16.68;100.00;100792.16;4936364;28;20251;-71
2023/09/20 04:34:29;;;;;;;6.77;2.23;;;;;;;16.97;100.00;100840.97;4922560;29;20501;-70
2023/09/20 04:36:56;;;;;;;8.50;3.13;;;;;;;16.59;100.00;100777.38;4938994;28;20538;-70
2023/09/20 04:39:25;;;;;;;6.80;2.30;;;;;;;16.73;100.00;100798.50;4923020;29;20202;-70
2023/09/20 04:41:53;;;;;;;19.83;3.20;;;;;;;17.02;100.00;100849.22;4922778;29;20436;-70
2023/09/20 04:44:23;;;;;;;9.33;2.60;;;;;;;16.98;100.00;100848.88;4924125;29;20576;-70
2023/09/20 04:46:48;;;;;;;5.90;2.57;;;;;;;16.58;100.00;100786.56;4908165;28;20450;-71
2023/09/20 04:49:14;;;;;;;7.30;2.30;;;;;;;16.98;100.00;100850.75;4934258;28;20482;-70
2023/09/20 04:51:42;;;;;;;9.07;3.10;;;;;;;16.48;100.00;100781.75;4921993;29;20399;-70
2023/09/20 04:54:08;;;;;;;8.10;2.90;;;;;;;16.41;100.00;100760.22;4937423;28;20475;-70
2023/09/20 04:56:34;;;;;;;8.37;3.10;;;;;;;16.84;100.00;100826.66;4928152;28;20812;-71
2023/09/20 04:59:00;;;;;;;7.60;2.33;;;;;;;16.79;100.00;100815.72;4921907;29;20451;-70
2023/09/20 05:01:26;;;;;;;8.63;2.63;;;;;;;16.49;100.00;100791.53;4927698;29;20196;-70
2023/09/20 05:03:52;;;;;;;9.47;2.87;;;;;;;16.99;100.00;100853.22;4939212;28;20494;-70
2023/09/20 05:06:18;;;;;;;9.63;2.77;;;;;;;16.65;100.00;100798.88;4925134;29;20251;-70
2023/09/20 05:08:44;;;;;;;9.63;3.20;;;;;;;16.96;100.00;100832.03;4926901;29;20196;-70
2023/09/20 05:11:13;;;;;;;8.03;2.77;;;;;;;16.78;100.00;100808.66;4925841;29;20453;-70
2023/09/20 05:13:40;;;;;;;9.77;3.10;;;;;;;16.54;100.00;100783.47;4923681;29;20266;-71
2023/09/20 05:16:05;;;;;;;8.80;2.80;;;;;;;16.56;100.00;100767.00;4923708;29;20452;-71
2023/09/20 05:18:31;;;;;;;10.10;2.50;;;;;;;16.80;100.00;100813.81;4923165;29;20898;-70
2023/09/20 05:20:58;;;;;;;8.50;2.30;;;;;;;16.65;100.00;100798.06;4923070;28;20199;-70
2023/09/20 05:23:24;;;;;;;8.90;2.80;;;;;;;16.92;100.00;100833.56;4925055;29;20208;-70
2023/09/20 05:25:50;;;;;;;7.73;2.77;;;;;;;16.62;100.00;100807.50;4925898;29;20558;-70
2023/09/20 05:28:15;;;;;;;6.50;2.50;;;;;;;16.79;100.00;100823.03;4922814;29;20476;-70
2023/09/20 05:30:44;;;;;;;7.57;2.50;;;;;;;16.62;100.00;100825.63;4943092;28;20534;-70
2023/09/20 05:33:11;;;;;;;27.57;3.57;;;;;;;16.61;100.00;100840.25;4927276;29;20238;-70
2023/09/20 05:35:39;;;;;;;7.60;3.00;;;;;;;16.20;100.00;100796.88;4929057;29;20442;-71
2023/09/20 05:38:05;;;;;;;8.20;2.60;;;;;;;16.43;100.00;100830.34;4925969;29;21035;-70
2023/09/20 05:40:30;;;;;;;9.27;3.20;;;;;;;16.23;100.00;100795.56;4930921;29;20436;-71
2023/09/20 05:42:56;;;;;;;7.43;2.60;;;;;;;16.18;100.00;100804.38;4929001;29;20214;-70
2023/09/20 05:45:26;;;;;;;9.93;3.10;;;;;;;15.99;100.00;100790.16;4929666;29;20300;-71
2023/09/20 05:47:52;;;;;;;5.80;2.90;;;;;;;16.24;100.00;100846.75;4928358;29;20210;-71
2023/09/20 05:50:23;;;;;;;8.27;2.90;;;;;;;15.60;100.00;100727.59;4946069;28;20899;-70
2023/09/20 05:52:51;;;;;;;5.87;2.50;;;;;;;16.26;100.00;100835.69;4927386;29;20518;-70
2023/09/20 05:55:18;;;;;;;6.27;2.60;;;;;;;16.36;100.00;100840.50;4928331;28;20484;-71
2023/09/20 05:57:44;;;;;;;11.23;3.17;;;;;;;16.12;100.00;100810.75;4928608;29;20432;-71
2023/09/20 06:00:22;;;;;;;7.23;2.43;;;;;;;15.60;100.00;100743.81;4928149;29;21001;-70
2023/09/20 06:02:49;;;;;;;7.93;2.53;;;;;;;16.17;100.00;100831.69;4927746;29;20482;-71
2023/09/20 06:05:15;;;;;;;7.97;2.80;;;;;;;16.35;100.00;100844.28;4929748;29;20502;-70
2023/09/20 06:07:41;;;;;;;7.80;2.77;;;;;;;16.32;100.00;100853.69;4927108;29;20457;-71
2023/09/20 06:10:07;;;;;;;11.63;2.43;;;;;;;15.67;100.00;100740.16;4940921;28;20463;-70
2023/09/20 06:12:33;;;;;;;6.30;2.23;;;;;;;16.01;100.00;100820.50;4927731;29;20216;-70
2023/09/20 06:14:59;;;;;;;6.70;2.33;;;;;;;15.08;100.00;100669.84;4930658;29;20451;-71
2023/09/20 06:17:29;;;;;;;7.37;2.90;;;;;;;16.23;100.00;100847.00;4930593;29;20195;-70
2023/09/20 06:19:57;;;;;;;9.60;3.10;;;;;;;15.88;100.00;100801.81;4943881;28;20881;-70
2023/09/20 06:22:23;;;;;;;8.60;2.90;;;;;;;16.20;100.00;100860.97;4927219;29;20522;-70
2023/09/20 06:24:48;;;;;;;7.93;2.83;;;;;;;15.09;100.00;100707.41;4928304;29;20546;-70
2023/09/20 06:27:14;;;;;;;8.23;2.93;;;;;;;15.62;100.00;100775.19;4942419;28;20797;-70
2023/09/20 06:29:39;;;;;;;7.80;2.60;;;;;;;15.90;100.00;100840.25;4926447;29;20199;-70
2023/09/20 06:32:05;;;;;;;7.53;2.90;;;;;;;16.00;100.00;100845.94;4928599;29;20211;-70
2023/09/20 06:34:31;;;;;;;9.07;2.67;;;;;;;16.05;100.00;100845.19;4928491;29;20209;-70
2023/09/20 06:36:56;;;;;;;6.90;2.90;;;;;;;15.61;100.00;100787.88;4942505;28;20194;-71
2023/09/20 06:39:22;;;;;;;7.60;2.30;;;;;;;15.53;100.00;100761.19;4943370;28;20234;-70
2023/09/20 06:41:48;;;;;;;8.03;2.80;;;;;;;15.53;100.00;100775.50;4925632;29;20526;-70
2023/09/20 06:44:13;;;;;;;5.57;2.37;;;;;;;15.99;100.00;100844.25;4928935;29;20671;-70
2023/09/20 06:46:42;;;;;;;6.03;2.77;;;;;;;15.45;100.00;100726.38;4941821;28;20450;-70
2023/09/20 06:49:08;;;;;;;7.13;2.00;;;;;;;15.67;100.00;100767.19;4942912;28;20198;-70
2023/09/20 06:51:34;;;;;;;8.40;2.17;;;;;;;16.27;100.00;100848.16;4928718;28;21000;-70
2023/09/20 06:54:00;;;;;;;7.20;2.63;;;;;;;16.01;100.00;100819.69;4925326;29;20471;-71
2023/09/20 06:56:26;;;;;;;9.83;2.67;;;;;;;16.23;100.00;100849.69;4937851;28;20481;-70
2023/09/20 06:58:55;;;;;;;10.93;3.03;;;;;;;16.28;100.00;100841.66;4926036;29;20255;-70
2023/09/20 07:01:25;;;;;;;7.37;2.00;;;;;;;16.11;100.00;100833.44;4939089;28;20253;-71
2023/09/20 07:03:52;;;;;;;8.47;2.90;;;;;;;16.23;100.00;100831.56;4928063;29;20486;-70
2023/09/20 07:06:17;;;;;;;9.70;2.17;;;;;;;16.09;100.00;100802.28;4926149;29;20454;-70
2023/09/20 07:08:42;;;;;;;5.80;2.00;;;;;;;16.39;100.00;100842.72;4924426;29;20455;-70
2023/09/20 07:11:11;;;;;;;7.03;2.73;;;;;;;16.15;100.00;100795.94;4927873;29;20274;-70
2023/09/20 07:13:36;;;;;;;7.30;2.50;;;;;;;16.37;100.00;100815.06;4927386;29;20204;-70
2023/09/20 07:16:05;;;;;;;7.17;2.60;;;;;;;16.10;100.00;100757.94;4927147;29;20443;-72
2023/09/20 07:18:31;;;;;;;8.17;2.23;;;;;;;16.61;100.00;100849.19;4940496;28;20190;-70
2023/09/20 07:20:56;;;;;;;6.37;2.20;;;;;;;16.39;100.00;100805.66;4940837;28;20444;-71
2023/09/20 07:23:23;;;;;;;5.97;1.80;;;;;;;16.32;100.00;100804.97;4928477;29;20471;-70
2023/09/20 07:25:50;;;;;;;8.03;2.10;;;;;;;16.73;100.00;100832.91;4926651;29;20184;-70
2023/09/20 07:28:19;;;;;;;8.10;2.80;;;;;;;16.75;100.00;100833.50;4937114;28;20447;-70
2023/09/20 07:30:45;;;;;;;5.53;2.33;;;;;;;16.65;100.00;100811.59;4927771;29;21779;-71
2023/09/20 07:33:12;;;;;;;9.30;3.70;;;;;;;16.70;100.00;100833.38;4942631;28;20613;-71
2023/09/20 07:35:47;;;;;;;5.47;2.07;;;;;;;16.77;100.00;100844.91;4928398;29;20435;-70
2023/09/20 07:38:18;;;;;;;6.87;2.47;;;;;;;16.47;100.00;100772.81;4927690;29;20451;-70
2023/09/20 07:40:45;;;;;;;6.00;2.30;;;;;;;16.58;100.00;100792.78;4929236;29;20431;-71
2023/09/20 07:43:10;;;;;;;8.97;2.90;;;;;;;16.09;100.00;100685.94;4927818;29;20558;-70
2023/09/20 07:45:41;;;;;;;9.97;2.80;;;;;;;16.68;100.00;100781.34;4928311;29;20440;-71
2023/09/20 07:48:16;;;;;;;6.03;2.50;;;;;;;16.94;100.00;100810.59;4928359;29;20192;-70
2023/09/20 07:50:43;;;;;;;7.63;2.60;;;;;;;17.01;100.00;100807.75;4927898;29;20435;-71
2023/09/20 07:53:10;;;;;;;4.43;2.03;;;;;;;17.03;100.00;100810.22;4928003;29;20489;-70
2023/09/20 07:55:45;;;;;;;8.40;2.93;;;;;;;16.91;100.00;100789.41;4924801;29;20454;-71
2023/09/20 07:58:15;;;;;;;7.40;2.43;;;;;;;17.16;100.00;100808.03;4927137;29;20534;-70
2023/09/20 08:00:42;;;;;;;8.43;2.50;;;;;;;16.97;100.00;100781.38;4928852;29;20443;-70
2023/09/20 08:03:09;;;;;;;5.80;2.43;;;;;;;17.14;100.00;100793.88;4925417;29;21057;-70
2023/09/20 08:05:35;;;;;;;11.83;2.60;;;;;;;17.27;100.00;100800.06;4918824;28;20510;-70
2023/09/20 08:08:00;;;;;;;8.23;2.67;;;;;;;16.77;100.00;100704.06;4940288;28;20475;-71
2023/09/20 08:10:26;;;;;;;6.20;2.23;;;;;;;17.13;100.00;100767.06;4925491;29;20482;-70
2023/09/20 08:12:53;;;;;;;7.60;2.40;;;;;;;17.35;100.00;100784.22;4941185;28;20334;-71
2023/09/20 08:15:20;;;;;;;9.03;2.50;;;;;;;17.06;100.00;100737.38;4939754;28;20443;-70
2023/09/20 08:20:29;;;;;;;8.70;3.23;;;;;;;16.74;100.00;100699.13;4927331;29;20434;-71
2023/09/20 09:01:44;;;;;;;8.10;3.10;;;;;;;17.81;100.00;100795.03;4925387;29;21051;-70
2023/09/20 09:04:12;;;;;;;7.53;2.33;;;;;;;17.19;100.00;100673.91;4926654;29;20494;-70
2023/09/20 09:06:37;;;;;;;11.00;3.67;;;;;;;17.66;100.00;100768.47;4924139;29;20501;-70
2023/09/20 09:09:03;;;;;;;4.50;2.20;;;;;;;17.87;100.00;100787.78;4924885;29;20506;-70
2023/09/20 09:11:29;;;;;;;5.63;2.40;;;;;;;18.02;100.00;100778.00;4926541;29;20238;-71
2023/09/20 09:13:57;;;;;;;5.60;2.70;;;;;;;17.34;100.00;100648.94;4924669;29;20657;-70
2023/09/20 09:16:25;;;;;;;7.67;2.43;;;;;;;17.73;100.00;100720.28;4938725;28;20471;-70
2023/09/20 09:18:51;;;;;;;7.50;2.70;;;;;;;18.13;100.00;100772.69;4937051;28;20880;-73
2023/09/20 09:21:18;;;;;;;7.40;2.83;;;;;;;17.62;100.00;100722.03;4924712;29;20448;-73
2023/09/20 09:23:46;;;;;;;6.70;2.40;;;;;;;17.32;100.00;100672.75;4927758;29;20589;-70
2023/09/20 09:26:13;;;;;;;7.30;2.70;;;;;;;17.82;100.00;100745.16;4925882;29;20872;-70
2023/09/20 09:28:42;;;;;;;7.00;2.70;;;;;;;17.98;100.00;100766.00;4926013;29;20454;-71
2023/09/20 09:31:08;;;;;;;7.20;2.57;;;;;;;17.97;100.00;100767.06;4924441;29;20448;-70
2023/09/20 09:33:37;;;;;;;4.80;2.30;;;;;;;17.99;100.00;100764.09;4927284;29;20471;-71
2023/09/20 09:36:06;;;;;;;6.67;2.17;;;;;;;17.29;100.00;100640.72;4925655;29;21079;-71
2023/09/20 09:38:34;;;;;;;4.97;2.20;;;;;;;18.06;100.00;100765.56;4941086;28;20518;-70
2023/09/20 09:41:01;;;;;;;7.90;2.70;;;;;;;17.81;100.00;100700.91;4927592;29;20534;-71
2023/09/20 09:43:28;;;;;;;5.77;1.93;;;;;;;18.20;100.00;100741.59;4924726;29;20503;-70
2023/09/20 09:45:55;;;;;;;5.93;1.93;;;;;;;18.15;100.00;100746.13;4928625;29;20455;-70
2023/09/20 09:48:24;;;;;;;6.60;2.50;;;;;;;18.14;100.00;100723.59;4924273;29;20479;-70
2023/09/20 09:50:52;;;;;;;7.67;2.63;;;;;;;18.23;100.00;100732.13;4924133;29;20436;-71
2023/09/20 09:53:21;;;;;;;4.70;1.80;;;;;;;18.15;100.00;100695.38;4923276;29;20483;-70
2023/09/20 09:55:48;;;;;;;5.20;2.20;;;;;;;17.50;100.00;100617.44;4923349;29;20443;-71
2023/09/20 09:58:13;;;;;;;6.67;2.63;;;;;;;18.19;100.00;100726.38;4926529;29;20443;-71
2023/09/20 10:00:41;;;;;;;6.30;2.43;;;;;;;17.83;100.00;100668.91;4924743;29;20961;-70
2023/09/20 10:03:19;;;;;;;5.93;2.50;;;;;;;17.91;100.00;100685.84;4921679;29;20207;-71
2023/09/20 10:05:46;;;;;;;8.70;2.63;;;;;;;18.04;100.00;100705.28;4925828;29;21143;-71
2023/09/20 10:08:13;;;;;;;6.73;3.20;;;;;;;18.16;100.00;100724.16;4925901;29;20483;-71
2023/09/20 10:10:41;;;;;;;5.83;1.93;;;;;;;17.83;100.00;100674.34;4925428;29;20457;-71
2023/09/20 10:13:11;;;;;;;6.53;2.00;;;;;;;18.12;100.00;100697.78;4921797;29;20479;-70
2023/09/20 10:15:37;;;;;;;5.00;2.30;;;;;;;17.96;100.00;100664.19;4925687;29;20574;-70
2023/09/20 10:18:03;;;;;;;7.73;2.67;;;;;;;18.00;100.00;100670.78;4927436;29;20531;-70
2023/09/20 10:21:04;;;;;;;6.63;2.00;;;;;;;18.26;100.00;100716.16;4929987;29;20934;-71
2023/09/20 10:23:31;;;;;;;6.03;2.37;;;;;;;18.28;100.00;100724.03;4944247;28;20261;-72
2023/09/20 10:26:00;;;;;;;7.50;2.67;;;;;;;18.05;100.00;100665.38;4929085;29;20448;-70
2023/09/20 10:28:31;;;;;;;7.43;2.53;;;;;;;18.39;100.00;100695.94;4927487;29;20454;-70
2023/09/20 10:31:04;;;;;;;5.60;2.10;;;;;;;18.45;100.00;100688.66;4926197;29;20484;-71
2023/09/20 10:33:45;;;;;;;7.63;2.50;;;;;;;18.57;100.00;100691.22;4927735;29;20506;-71
2023/09/20 10:36:23;;;;;;;6.17;1.90;;;;;;;18.56;100.00;100681.44;4928652;29;20443;-70
2023/09/20 10:38:48;;;;;;;4.87;1.73;;;;;;;17.94;100.00;100583.06;4925345;29;20447;-71
2023/09/20 10:41:17;;;;;;;4.10;1.80;;;;;;;18.54;100.00;100662.69;4926385;29;20455;-70
2023/09/20 10:43:46;;;;;;;7.50;2.47;;;;;;;18.61;100.00;100633.44;4929562;29;20218;-73
2023/09/20 10:46:14;;;;;;;7.60;1.60;;;;;;;18.72;100.00;100656.91;4925497;28;20444;-71
2023/09/20 10:48:51;;;;;;;6.33;1.77;;;;;;;18.61;100.00;100648.91;4924513;29;20451;-70
2023/09/20 10:51:42;;;;;;;5.37;1.90;;;;;;;18.56;100.00;100665.97;4941229;28;20446;-71
2023/09/20 10:54:29;;;;;;;10.23;2.03;;;;;;;18.26;100.00;100625.75;4928202;29;20503;-71
2023/09/20 10:57:02;;;;;;;4.73;1.57;;;;;;;18.46;100.00;100633.28;4928448;28;20470;-70
2023/09/20 10:59:28;;;;;;;3.77;1.57;;;;;;;18.62;100.00;100651.34;4928310;29;20439;-70
2023/09/20 11:01:58;;;;;;;7.43;2.20;;;;;;;18.37;100.00;100624.78;4925036;29;20474;-71
2023/09/20 11:04:28;;;;;;;5.13;1.53;;;;;;;18.58;100.00;100649.44;4927207;29;20207;-71
2023/09/20 11:06:55;;;;;;;5.93;1.70;;;;;;;18.47;100.00;100641.16;4928067;29;20873;-70
2023/09/20 11:09:23;;;;;;;5.60;1.67;;;;;;;18.64;100.00;100646.50;4927462;29;20435;-71
2023/09/20 11:11:49;;;;;;;3.80;1.83;;;;;;;18.66;100.00;100647.06;4942292;28;22561;-70
2023/09/20 11:14:16;;;;;;;5.90;1.87;;;;;;;18.45;100.00;100648.75;4928109;29;20465;-71
2023/09/20 11:16:43;;;;;;;5.43;2.20;;;;;;;18.63;100.00;100653.03;4926224;29;20449;-71
2023/09/20 11:19:12;;;;;;;11.07;1.80;;;;;;;18.03;100.00;100578.00;4928046;29;20456;-71
2023/09/20 11:21:41;;;;;;;5.40;1.80;;;;;;;18.60;100.00;100636.38;4928701;29;20499;-70
2023/09/20 11:24:13;;;;;;;4.13;1.60;;;;;;;18.43;100.00;100590.34;4924408;29;20471;-70
2023/09/20 11:26:40;;;;;;;3.80;1.37;;;;;;;18.69;100.00;100648.47;4925221;29;20463;-70
2023/09/20 11:29:08;;;;;;;5.27;2.10;;;;;;;18.69;100.00;100648.47;4926344;29;20567;-71
2023/09/20 11:31:35;;;;;;;4.93;2.00;;;;;;;18.52;100.00;100594.25;4943042;28;20885;-70
2023/09/20 11:34:03;;;;;;;5.27;1.77;;;;;;;17.88;100.00;100507.25;4927750;29;20478;-70
2023/09/20 11:36:39;;;;;;;4.20;1.83;;;;;;;18.54;100.00;100583.91;4927731;29;20526;-71
2023/09/20 11:39:05;;;;;;;4.60;1.60;;;;;;;18.79;100.00;100643.13;4926275;29;20535;-71
2023/09/20 11:41:32;;;;;;;5.20;1.67;;;;;;;18.74;100.00;100640.38;4925355;29;20448;-71
2023/09/20 11:44:02;;;;;;;3.50;1.50;;;;;;;18.78;100.00;100630.63;4940566;28;20467;-71
2023/09/20 11:46:37;;;;;;;6.63;1.93;;;;;;;18.83;100.00;100625.22;4923675;29;20959;-70
2023/09/20 11:49:08;;;;;;;3.87;1.70;;;;;;;18.81;100.00;100624.69;4925897;29;20945;-71
2023/09/20 11:51:35;;;;;;;4.40;1.50;;;;;;;18.56;100.00;100568.19;4924984;29;20450;-71
2023/09/20 11:54:05;;;;;;;5.07;1.67;;;;;;;18.16;100.00;100509.72;4928488;29;20481;-73
2023/09/20 11:56:32;;;;;;;5.40;1.63;;;;;;;18.83;100.00;100627.13;4927907;29;20535;-70
2023/09/20 11:59:11;;;;;;;3.63;1.50;;;;;;;18.50;100.00;100564.59;4925545;29;20451;-70
2023/09/20 12:01:42;;;;;;;6.03;1.70;;;;;;;18.76;100.00;100597.47;4921824;29;20446;-71